Time;durP1;ratioP1;P1;durP2;ratioP2;P2;SDS_P1;SDS_P2;PMS_P1;PMS_P2;Temp;Humidity;BMP_temperature;BMP_pressure;BME280_temperature;BME280_humidity;BME280_pressure;Samples;Min_cycle;Max_cycle;Signal;HPM_P1;HPM_P2
2022/10/16 00:00:39;;;;;;;0.10;0.10;;;13.40;99.90;;;;;;5143949;27;20043;-76
2022/10/16 00:03:05;;;;;;;0.00;0.00;;;13.40;99.90;;;;;;5151486;27;20054;-77
2022/10/16 00:05:31;;;;;;;0.10;0.10;;;13.40;99.90;;;;;;5130959;27;20043;-76
2022/10/16 00:07:56;;;;;;;0.10;0.10;;;13.40;99.90;;;;;;5145244;27;20470;-77
2022/10/16 00:10:22;;;;;;;0.28;0.17;;;13.40;99.90;;;;;;5149724;27;20035;-76
2022/10/16 00:12:48;;;;;;;0.38;0.38;;;13.40;99.90;;;;;;5149847;27;20104;-76
2022/10/16 00:15:14;;;;;;;0.00;0.00;;;13.40;99.90;;;;;;5141970;27;20039;-77
2022/10/16 00:17:40;;;;;;;0.10;0.10;;;13.40;99.90;;;;;;5144333;27;20059;-75
2022/10/16 00:20:06;;;;;;;0.32;0.32;;;13.50;99.90;;;;;;5145985;27;20471;-76
2022/10/16 00:22:32;;;;;;;0.10;0.10;;;13.40;99.90;;;;;;5150672;27;20061;-76
2022/10/16 00:24:58;;;;;;;0.88;0.73;;;13.40;99.90;;;;;;5132498;27;20055;-76
2022/10/16 00:27:23;;;;;;;0.10;0.10;;;13.40;99.90;;;;;;5140270;27;20035;-76
2022/10/16 00:29:52;;;;;;;0.00;0.00;;;13.50;99.90;;;;;;5141253;27;20039;-78
2022/10/16 00:32:19;;;;;;;0.10;0.10;;;13.50;99.90;;;;;;5118410;27;20481;-77
2022/10/16 00:34:45;;;;;;;0.10;0.10;;;13.40;99.90;;;;;;5135474;27;20397;-78
2022/10/16 00:37:11;;;;;;;0.10;0.10;;;13.40;99.90;;;;;;5130613;28;20129;-76
2022/10/16 00:39:36;;;;;;;0.10;0.10;;;13.40;99.90;;;;;;5132479;27;20039;-77
2022/10/16 00:42:02;;;;;;;0.00;0.00;;;13.40;99.90;;;;;;5132000;27;20372;-76
2022/10/16 00:44:52;;;;;;;0.00;0.00;;;13.40;99.90;;;;;;5132003;27;20086;-75
2022/10/16 00:47:24;;;;;;;0.10;0.10;;;13.40;99.90;;;;;;5152009;27;20093;-77
2022/10/16 00:49:53;;;;;;;0.43;0.43;;;13.50;99.90;;;;;;5143003;27;20079;-77
2022/10/16 00:52:19;;;;;;;0.03;0.03;;;13.50;99.90;;;;;;5136398;27;20486;-77
2022/10/16 00:54:46;;;;;;;5.03;1.27;;;13.50;99.90;;;;;;5130620;27;20046;-76
2022/10/16 00:57:12;;;;;;;0.10;0.10;;;13.40;99.90;;;;;;5124245;27;20043;-77
2022/10/16 00:59:40;;;;;;;0.20;0.20;;;13.50;99.90;;;;;;5131370;27;20043;-78
2022/10/16 01:02:14;;;;;;;0.08;0.08;;;13.50;99.90;;;;;;5146563;27;20489;-78
2022/10/16 01:04:50;;;;;;;0.10;0.10;;;13.40;99.90;;;;;;5142605;27;20035;-78
2022/10/16 01:07:25;;;;;;;0.17;0.13;;;13.50;99.90;;;;;;5127838;27;20146;-78
2022/10/16 01:10:09;;;;;;;0.80;0.65;;;13.50;99.90;;;;;;5137534;27;20470;-77
2022/10/16 01:12:53;;;;;;;0.10;0.10;;;13.60;99.90;;;;;;5114443;27;20042;-79
2022/10/16 01:15:27;;;;;;;0.10;0.10;;;13.50;99.90;;;;;;5138902;27;20074;-79
2022/10/16 01:18:18;;;;;;;0.10;0.10;;;13.60;99.90;;;;;;5130832;27;20051;-78
2022/10/16 01:21:06;;;;;;;0.00;0.00;;;13.50;99.90;;;;;;5140773;27;20089;-78
2022/10/16 01:24:06;;;;;;;0.30;0.30;;;13.60;99.90;;;;;;5131856;27;20478;-76
2022/10/16 01:27:07;;;;;;;0.10;0.10;;;13.60;99.90;;;;;;5127667;27;20054;-76
2022/10/16 01:29:37;;;;;;;2.28;0.90;;;13.60;99.90;;;;;;5150134;27;20039;-76
2022/10/16 01:32:16;;;;;;;0.10;0.10;;;13.70;99.90;;;;;;5148827;27;20043;-77
2022/10/16 01:34:58;;;;;;;0.10;0.10;;;13.60;99.90;;;;;;5153320;27;20095;-76
2022/10/16 01:37:53;;;;;;;0.10;0.10;;;13.60;99.90;;;;;;5127833;27;20050;-77
2022/10/16 01:40:23;;;;;;;0.10;0.10;;;13.60;99.90;;;;;;5144808;27;20095;-77
2022/10/16 01:42:56;;;;;;;0.08;0.08;;;13.60;99.90;;;;;;5151575;27;20046;-78
2022/10/16 01:45:22;;;;;;;0.10;0.10;;;13.60;99.90;;;;;;5144349;27;20043;-78
2022/10/16 01:47:49;;;;;;;0.10;0.10;;;13.70;99.90;;;;;;5131782;27;20046;-77
2022/10/16 01:50:18;;;;;;;1.13;1.10;;;13.70;99.90;;;;;;5153285;27;20490;-77
2022/10/16 01:52:47;;;;;;;1.15;0.52;;;13.60;99.90;;;;;;5153214;27;20045;-77
2022/10/16 01:55:19;;;;;;;0.20;0.20;;;13.60;99.90;;;;;;5126152;27;20070;-77
2022/10/16 01:57:48;;;;;;;0.10;0.10;;;13.60;99.90;;;;;;5147224;27;20043;-77
2022/10/16 02:00:16;;;;;;;0.10;0.10;;;13.50;99.90;;;;;;5138370;27;20055;-75
2022/10/16 02:02:46;;;;;;;0.10;0.10;;;13.50;99.90;;;;;;5141699;27;20039;-77
2022/10/16 02:05:22;;;;;;;0.05;0.05;;;13.50;99.90;;;;;;5150241;27;20042;-77
2022/10/16 02:07:48;;;;;;;0.10;0.10;;;13.50;99.90;;;;;;5142075;27;20804;-77
2022/10/16 02:10:14;;;;;;;1.20;0.47;;;13.40;99.90;;;;;;5148348;27;20035;-77
2022/10/16 02:12:45;;;;;;;0.10;0.10;;;13.40;99.90;;;;;;5150924;27;20043;-77
2022/10/16 02:15:11;;;;;;;0.10;0.10;;;13.40;99.90;;;;;;5152676;27;20027;-78
2022/10/16 02:17:37;;;;;;;0.00;0.00;;;13.40;99.90;;;;;;5122233;27;20477;-77
2022/10/16 02:20:04;;;;;;;0.10;0.10;;;13.30;99.90;;;;;;5146161;27;20038;-77
2022/10/16 02:22:44;;;;;;;0.10;0.10;;;13.30;99.90;;;;;;5151991;27;20449;-77
2022/10/16 02:25:24;;;;;;;0.00;0.00;;;13.30;99.90;;;;;;5139935;27;20264;-77
2022/10/16 02:28:08;;;;;;;0.10;0.10;;;13.30;99.90;;;;;;5132636;27;20542;-77
2022/10/16 02:30:44;;;;;;;0.10;0.10;;;13.30;99.90;;;;;;5124277;27;20520;-77
2022/10/16 02:33:13;;;;;;;0.10;0.10;;;13.30;99.90;;;;;;5142902;27;20113;-76
2022/10/16 02:35:40;;;;;;;0.10;0.10;;;13.30;99.90;;;;;;5148652;27;20499;-77
2022/10/16 02:38:08;;;;;;;0.00;0.00;;;13.20;99.90;;;;;;5133321;27;20039;-76
2022/10/16 02:40:35;;;;;;;0.25;0.25;;;13.20;99.90;;;;;;5143049;27;20050;-77
2022/10/16 02:43:02;;;;;;;0.10;0.10;;;13.20;99.90;;;;;;5140302;27;20432;-77
2022/10/16 02:45:29;;;;;;;0.10;0.10;;;13.20;99.90;;;;;;5150830;27;20039;-77
2022/10/16 02:47:54;;;;;;;0.00;0.00;;;13.20;99.90;;;;;;5151338;27;20049;-77
2022/10/16 02:50:20;;;;;;;0.10;0.10;;;13.20;99.90;;;;;;5146063;27;20405;-78
2022/10/16 02:52:46;;;;;;;0.22;0.22;;;13.20;99.90;;;;;;5143214;27;20516;-78
2022/10/16 02:55:12;;;;;;;0.10;0.10;;;13.20;99.90;;;;;;5145892;27;20118;-78
2022/10/16 02:57:38;;;;;;;0.10;0.10;;;13.10;99.90;;;;;;5128654;27;20053;-78
2022/10/16 03:00:05;;;;;;;0.10;0.10;;;13.10;99.90;;;;;;5152008;27;20043;-78
2022/10/16 03:02:31;;;;;;;0.10;0.10;;;13.10;99.90;;;;;;5146463;27;20039;-77
2022/10/16 03:04:56;;;;;;;0.20;0.20;;;13.10;99.90;;;;;;5150466;27;20045;-78
2022/10/16 03:07:22;;;;;;;0.10;0.10;;;13.10;99.90;;;;;;5152879;27;20042;-77
2022/10/16 03:09:47;;;;;;;0.00;0.00;;;13.00;99.90;;;;;;5133279;27;20066;-78
2022/10/16 03:12:13;;;;;;;0.10;0.10;;;13.00;99.90;;;;;;5150283;27;20047;-78
2022/10/16 03:14:39;;;;;;;0.00;0.00;;;13.00;99.90;;;;;;5153350;27;20042;-78
2022/10/16 03:17:05;;;;;;;0.10;0.10;;;12.90;99.90;;;;;;5152458;27;20125;-78
2022/10/16 03:19:31;;;;;;;0.05;0.05;;;12.90;99.90;;;;;;5151242;27;20126;-77
2022/10/16 03:21:57;;;;;;;0.10;0.10;;;12.90;99.90;;;;;;5134076;27;20087;-78
2022/10/16 03:24:22;;;;;;;0.98;0.82;;;12.90;99.90;;;;;;5151197;27;20046;-78
2022/10/16 03:26:48;;;;;;;0.10;0.10;;;12.90;99.90;;;;;;5134172;27;20051;-77
2022/10/16 03:29:13;;;;;;;0.10;0.10;;;12.90;99.90;;;;;;5143672;27;20112;-77
2022/10/16 03:31:39;;;;;;;0.00;0.00;;;12.90;99.90;;;;;;5139815;27;20081;-77
2022/10/16 03:34:05;;;;;;;0.10;0.10;;;12.90;99.90;;;;;;5131305;27;20046;-77
2022/10/16 03:36:31;;;;;;;0.10;0.10;;;12.90;99.90;;;;;;5132253;27;20118;-77
2022/10/16 03:38:56;;;;;;;0.08;0.08;;;13.00;99.90;;;;;;5129596;27;20043;-77
2022/10/16 03:41:22;;;;;;;0.10;0.10;;;13.10;99.90;;;;;;5145948;27;20060;-78
2022/10/16 03:43:47;;;;;;;0.20;0.20;;;13.10;99.90;;;;;;5152614;27;20053;-77
2022/10/16 03:46:13;;;;;;;0.43;0.43;;;13.10;99.90;;;;;;5131399;27;20382;-77
2022/10/16 03:48:39;;;;;;;0.05;0.05;;;13.10;99.90;;;;;;5151166;27;20030;-78
2022/10/16 03:51:05;;;;;;;1.45;0.85;;;13.20;99.90;;;;;;5151932;27;20499;-79
2022/10/16 03:53:31;;;;;;;0.10;0.10;;;13.20;99.90;;;;;;5144925;27;20089;-79
2022/10/16 03:55:56;;;;;;;0.10;0.10;;;13.20;99.90;;;;;;5131865;27;20065;-76
2022/10/16 03:58:22;;;;;;;0.35;0.35;;;13.30;99.90;;;;;;5140145;27;20043;-77
2022/10/16 04:00:48;;;;;;;0.45;0.25;;;13.30;99.90;;;;;;5138147;27;20495;-76
2022/10/16 04:03:14;;;;;;;0.20;0.20;;;13.30;99.90;;;;;;5142552;27;20057;-77
2022/10/16 04:05:40;;;;;;;0.73;0.73;;;13.30;99.90;;;;;;5141411;27;20027;-78
2022/10/16 04:08:05;;;;;;;0.20;0.20;;;13.30;99.90;;;;;;5146905;27;20049;-79
2022/10/16 04:10:31;;;;;;;0.10;0.10;;;13.30;99.90;;;;;;5152271;27;20038;-78
2022/10/16 04:12:57;;;;;;;0.15;0.15;;;13.30;99.90;;;;;;5145895;27;20054;-79
2022/10/16 04:15:24;;;;;;;0.10;0.10;;;13.30;99.90;;;;;;5132363;27;20055;-79
2022/10/16 04:17:50;;;;;;;0.10;0.10;;;13.20;99.90;;;;;;5152290;27;20079;-79
2022/10/16 04:20:15;;;;;;;0.20;0.20;;;13.20;99.90;;;;;;5151441;27;20054;-79
2022/10/16 04:22:41;;;;;;;0.10;0.10;;;13.20;99.90;;;;;;5148586;27;20490;-79
2022/10/16 04:25:07;;;;;;;0.00;0.00;;;13.20;99.90;;;;;;5134686;27;20041;-79
2022/10/16 04:27:33;;;;;;;0.20;0.20;;;13.20;99.90;;;;;;5131277;28;20458;-77
2022/10/16 04:29:59;;;;;;;1.40;1.13;;;13.20;99.90;;;;;;5130326;27;20417;-78
2022/10/16 04:32:25;;;;;;;0.80;0.52;;;13.20;99.90;;;;;;5140694;27;20042;-78
2022/10/16 04:34:51;;;;;;;0.10;0.10;;;13.20;99.90;;;;;;5133368;27;20038;-77
2022/10/16 04:37:16;;;;;;;0.22;0.22;;;13.20;99.90;;;;;;5138856;27;20440;-77
2022/10/16 04:39:42;;;;;;;0.10;0.10;;;13.20;99.90;;;;;;5131777;27;20042;-77
2022/10/16 04:42:08;;;;;;;0.00;0.00;;;13.10;99.90;;;;;;5151365;27;20058;-77
2022/10/16 04:44:33;;;;;;;4.95;1.65;;;13.10;99.90;;;;;;5151388;27;20042;-77
2022/10/16 04:46:59;;;;;;;0.45;0.25;;;13.10;99.90;;;;;;5131509;27;20053;-78
2022/10/16 04:49:24;;;;;;;0.10;0.10;;;13.10;99.90;;;;;;5150770;27;20047;-76
2022/10/16 04:51:50;;;;;;;1.95;0.80;;;13.10;99.90;;;;;;5128035;27;20394;-77
2022/10/16 04:54:16;;;;;;;0.65;0.65;;;13.10;99.90;;;;;;5137287;27;20487;-75
2022/10/16 04:56:50;;;;;;;0.10;0.10;;;13.00;99.90;;;;;;5154910;27;20056;-75
2022/10/16 04:59:17;;;;;;;0.10;0.10;;;13.00;99.90;;;;;;5155511;27;20039;-75
2022/10/16 05:01:42;;;;;;;1.60;1.15;;;13.00;99.90;;;;;;5152072;27;20130;-76
2022/10/16 05:04:09;;;;;;;0.10;0.10;;;13.00;99.90;;;;;;5136206;27;20126;-76
2022/10/16 05:06:34;;;;;;;0.10;0.10;;;13.00;99.90;;;;;;5151032;27;21039;-76
2022/10/16 05:09:00;;;;;;;6.40;0.73;;;13.00;99.90;;;;;;5140065;27;20070;-77
2022/10/16 05:11:25;;;;;;;0.00;0.00;;;13.00;99.90;;;;;;5128545;27;20942;-76
2022/10/16 05:13:51;;;;;;;0.25;0.25;;;13.00;99.90;;;;;;5131426;27;20071;-76
2022/10/16 05:16:17;;;;;;;0.10;0.10;;;13.00;99.90;;;;;;5149159;27;20497;-77
2022/10/16 05:18:42;;;;;;;0.10;0.10;;;12.90;99.90;;;;;;5139966;27;20397;-76
2022/10/16 05:21:08;;;;;;;0.10;0.10;;;13.00;99.90;;;;;;5136026;27;20050;-77
2022/10/16 05:23:34;;;;;;;0.10;0.10;;;13.00;99.90;;;;;;5151545;27;20050;-76
2022/10/16 05:26:00;;;;;;;0.00;0.00;;;13.00;99.90;;;;;;5135764;27;20068;-76
2022/10/16 05:28:28;;;;;;;0.10;0.10;;;13.00;99.90;;;;;;5135402;27;20490;-77
2022/10/16 05:30:54;;;;;;;0.13;0.13;;;13.00;99.90;;;;;;5150537;27;20046;-75
2022/10/16 05:33:21;;;;;;;0.10;0.10;;;13.00;99.90;;;;;;5154440;27;20077;-77
2022/10/16 05:35:46;;;;;;;0.10;0.10;;;13.00;99.90;;;;;;5135570;27;20050;-77
2022/10/16 05:38:12;;;;;;;0.10;0.10;;;12.90;99.90;;;;;;5133721;27;20042;-77
2022/10/16 05:40:37;;;;;;;0.10;0.10;;;13.00;99.90;;;;;;5145537;27;20481;-76
2022/10/16 05:43:03;;;;;;;0.10;0.10;;;12.90;99.90;;;;;;5139176;27;20039;-77
2022/10/16 05:45:29;;;;;;;0.10;0.10;;;12.90;99.90;;;;;;5133351;27;20046;-76
2022/10/16 05:47:54;;;;;;;0.10;0.10;;;12.90;99.90;;;;;;5134611;27;20039;-77
2022/10/16 05:50:20;;;;;;;0.00;0.00;;;12.90;99.90;;;;;;5115252;27;20047;-77
2022/10/16 05:52:45;;;;;;;0.90;0.70;;;12.90;99.90;;;;;;5139376;27;20122;-77
2022/10/16 05:55:11;;;;;;;0.00;0.00;;;12.90;99.90;;;;;;5135982;27;20444;-77
2022/10/16 05:57:36;;;;;;;0.10;0.10;;;12.90;99.90;;;;;;5136567;27;20041;-76
2022/10/16 06:00:03;;;;;;;0.00;0.00;;;12.90;99.90;;;;;;5133077;27;20043;-76
2022/10/16 06:02:29;;;;;;;0.10;0.10;;;12.90;99.90;;;;;;5150724;27;20134;-74
2022/10/16 06:04:54;;;;;;;0.03;0.03;;;12.90;99.90;;;;;;5134883;27;20126;-75
2022/10/16 06:07:21;;;;;;;0.10;0.10;;;12.90;99.90;;;;;;5151868;27;20047;-78
2022/10/16 06:09:50;;;;;;;0.10;0.10;;;12.90;99.90;;;;;;5147824;27;20110;-76
2022/10/16 06:12:16;;;;;;;0.13;0.13;;;12.90;99.90;;;;;;5132857;27;20054;-76
2022/10/16 06:14:42;;;;;;;0.10;0.10;;;12.90;99.90;;;;;;5113912;27;20035;-77
2022/10/16 06:17:07;;;;;;;0.35;0.35;;;12.90;99.90;;;;;;5130957;27;20076;-76
2022/10/16 06:19:33;;;;;;;0.03;0.03;;;13.00;99.90;;;;;;5124338;27;20043;-76
2022/10/16 06:21:59;;;;;;;0.82;0.43;;;12.90;99.90;;;;;;5150364;27;20141;-77
2022/10/16 06:24:25;;;;;;;0.20;0.20;;;12.90;99.90;;;;;;5151674;27;20051;-76
2022/10/16 06:26:50;;;;;;;0.40;0.40;;;13.00;99.90;;;;;;5130795;27;20512;-77
2022/10/16 06:29:16;;;;;;;1.48;0.90;;;12.90;99.90;;;;;;5137570;27;20031;-77
2022/10/16 06:31:41;;;;;;;0.43;0.43;;;13.00;99.90;;;;;;5121506;27;20103;-77
2022/10/16 06:34:11;;;;;;;0.47;0.47;;;13.00;99.90;;;;;;5121441;27;20133;-76
2022/10/16 06:36:37;;;;;;;12.02;1.65;;;13.10;99.90;;;;;;5133786;27;20518;-76
2022/10/16 06:39:03;;;;;;;0.08;0.08;;;13.10;99.90;;;;;;5131186;27;20122;-75
2022/10/16 06:41:29;;;;;;;0.10;0.10;;;13.10;99.90;;;;;;5131057;27;20047;-77
2022/10/16 06:43:54;;;;;;;0.28;0.28;;;13.20;99.90;;;;;;5136367;27;20039;-77
2022/10/16 06:46:23;;;;;;;0.10;0.10;;;13.20;99.90;;;;;;5140307;27;20062;-77
2022/10/16 06:48:49;;;;;;;0.00;0.00;;;13.20;99.90;;;;;;5145396;27;20031;-76
2022/10/16 06:51:20;;;;;;;0.28;0.28;;;13.10;99.90;;;;;;5119728;27;20405;-76
2022/10/16 06:53:51;;;;;;;0.10;0.10;;;13.10;99.90;;;;;;5144964;27;20050;-76
2022/10/16 06:56:23;;;;;;;0.63;0.63;;;13.10;99.90;;;;;;5123952;27;20039;-75
2022/10/16 06:58:50;;;;;;;0.10;0.10;;;13.10;99.90;;;;;;5143343;27;20434;-75
2022/10/16 07:01:17;;;;;;;0.10;0.10;;;13.10;99.90;;;;;;5142906;27;20050;-75
2022/10/16 07:03:44;;;;;;;0.00;0.00;;;13.20;99.90;;;;;;5145384;27;20061;-76
2022/10/16 07:06:12;;;;;;;0.10;0.10;;;13.20;99.90;;;;;;5141533;27;20046;-76
2022/10/16 07:08:39;;;;;;;1.20;0.95;;;13.20;99.90;;;;;;5140468;27;20130;-76
2022/10/16 07:11:10;;;;;;;0.10;0.10;;;13.20;99.90;;;;;;5136572;27;20076;-77
2022/10/16 07:13:37;;;;;;;0.30;0.30;;;13.10;99.90;;;;;;5127800;27;20047;-76
2022/10/16 07:16:23;;;;;;;0.10;0.10;;;13.10;99.90;;;;;;5142605;27;20378;-76
2022/10/16 07:18:51;;;;;;;0.10;0.10;;;13.10;99.90;;;;;;5143117;27;20121;-75
2022/10/16 07:21:20;;;;;;;0.10;0.10;;;13.10;99.90;;;;;;5148644;27;20034;-75
2022/10/16 07:23:50;;;;;;;0.13;0.13;;;13.10;99.90;;;;;;5142813;27;20043;-75
2022/10/16 07:26:15;;;;;;;0.10;0.10;;;13.10;99.90;;;;;;5132510;27;20393;-76
2022/10/16 07:28:42;;;;;;;0.00;0.00;;;13.20;99.90;;;;;;5133038;27;20050;-76
2022/10/16 07:31:11;;;;;;;0.10;0.10;;;13.20;99.90;;;;;;5133228;27;20038;-76
2022/10/16 07:33:38;;;;;;;0.03;0.03;;;13.20;99.90;;;;;;5150501;27;20398;-77
2022/10/16 07:36:04;;;;;;;0.00;0.00;;;13.20;99.90;;;;;;5137701;27;20049;-76
2022/10/16 07:38:29;;;;;;;0.00;0.00;;;13.30;99.90;;;;;;5150808;27;20042;-75
2022/10/16 07:40:59;;;;;;;0.10;0.10;;;13.30;99.90;;;;;;5141572;27;20133;-76
2022/10/16 07:43:26;;;;;;;0.10;0.10;;;13.40;99.90;;;;;;5124112;27;20508;-75
2022/10/16 07:45:52;;;;;;;1.30;0.80;;;13.40;99.90;;;;;;5136079;27;20043;-75
2022/10/16 07:48:18;;;;;;;0.30;0.30;;;13.50;99.90;;;;;;5132088;27;20046;-75
2022/10/16 07:50:45;;;;;;;0.10;0.10;;;13.50;99.90;;;;;;5145491;27;20554;-74
2022/10/16 07:53:11;;;;;;;0.30;0.30;;;13.50;99.90;;;;;;5123121;27;20408;-74
2022/10/16 07:55:37;;;;;;;10.23;2.30;;;13.60;99.90;;;;;;5140960;27;20053;-74
2022/10/16 07:58:04;;;;;;;0.20;0.20;;;13.60;99.90;;;;;;5141534;27;20039;-74
2022/10/16 08:00:30;;;;;;;0.00;0.00;;;13.60;99.90;;;;;;5139437;27;20138;-75
2022/10/16 08:02:59;;;;;;;0.20;0.20;;;13.70;99.90;;;;;;5115703;27;20537;-77
2022/10/16 08:05:26;;;;;;;0.20;0.20;;;13.70;99.90;;;;;;5118604;27;20264;-76
2022/10/16 08:07:52;;;;;;;2.17;0.95;;;13.60;99.90;;;;;;5139810;27;20049;-76
2022/10/16 08:10:19;;;;;;;0.00;0.00;;;13.70;99.90;;;;;;5141553;27;20578;-76
2022/10/16 08:12:45;;;;;;;0.10;0.10;;;13.70;99.90;;;;;;5140077;27;20450;-76
2022/10/16 08:15:10;;;;;;;0.10;0.10;;;13.60;99.90;;;;;;5142113;27;20137;-76
2022/10/16 08:17:36;;;;;;;0.17;0.17;;;13.60;99.90;;;;;;5143004;27;20045;-75
2022/10/16 08:20:02;;;;;;;0.35;0.35;;;13.60;99.90;;;;;;5136816;27;20050;-77
2022/10/16 08:22:27;;;;;;;0.00;0.00;;;13.70;99.90;;;;;;5139565;27;20409;-76
2022/10/16 08:24:53;;;;;;;0.10;0.10;;;13.60;99.90;;;;;;5137629;27;20031;-76
2022/10/16 08:27:19;;;;;;;0.10;0.10;;;13.70;99.90;;;;;;5138037;27;20501;-76
2022/10/16 08:29:44;;;;;;;0.10;0.10;;;13.70;99.90;;;;;;5142639;27;20088;-76
2022/10/16 08:32:10;;;;;;;0.00;0.00;;;13.80;99.90;;;;;;5139920;27;20058;-77
2022/10/16 08:34:35;;;;;;;0.20;0.20;;;14.00;99.90;;;;;;5128363;28;20126;-76
2022/10/16 08:37:01;;;;;;;0.10;0.10;;;14.10;99.90;;;;;;5143460;27;20121;-75
2022/10/16 08:39:27;;;;;;;0.35;0.35;;;14.20;99.90;;;;;;5149523;27;20096;-76
2022/10/16 08:42:04;;;;;;;0.30;0.30;;;14.20;99.90;;;;;;5131921;27;20043;-76
2022/10/16 08:45:04;;;;;;;0.03;0.03;;;14.30;99.90;;;;;;5119846;28;20063;-76
2022/10/16 08:47:55;;;;;;;5.50;0.52;;;14.30;99.90;;;;;;5125131;27;20066;-76
2022/10/16 08:50:26;;;;;;;0.10;0.10;;;14.30;99.90;;;;;;5133146;27;20043;-75
2022/10/16 08:52:52;;;;;;;0.10;0.10;;;14.40;99.90;;;;;;5137969;27;20030;-75
2022/10/16 08:55:41;;;;;;;0.30;0.30;;;14.40;99.90;;;;;;5141814;27;20397;-76
2022/10/16 08:58:19;;;;;;;0.28;0.28;;;14.40;99.90;;;;;;5127908;27;20058;-77
2022/10/16 09:00:52;;;;;;;0.15;0.15;;;14.50;99.90;;;;;;5147359;27;20058;-75
2022/10/16 09:03:33;;;;;;;0.00;0.00;;;14.50;99.90;;;;;;5132390;27;20054;-76
2022/10/16 09:06:20;;;;;;;0.30;0.30;;;14.60;99.90;;;;;;5150712;27;20050;-76
2022/10/16 09:09:14;;;;;;;0.00;0.00;;;14.60;99.90;;;;;;5150012;27;20110;-76
2022/10/16 09:11:46;;;;;;;0.30;0.17;;;14.60;99.90;;;;;;5138001;27;20508;-76
2022/10/16 09:14:14;;;;;;;8.98;0.90;;;14.70;99.90;;;;;;5130669;27;20043;-78
2022/10/16 09:16:51;;;;;;;0.00;0.00;;;14.70;99.90;;;;;;5123193;27;20060;-76
2022/10/16 09:19:27;;;;;;;0.10;0.10;;;14.70;99.90;;;;;;5135558;27;20114;-77
2022/10/16 09:21:55;;;;;;;0.10;0.10;;;14.70;99.90;;;;;;5143883;27;20078;-77
2022/10/16 09:24:25;;;;;;;0.00;0.00;;;14.70;99.90;;;;;;5148057;27;20038;-77
2022/10/16 09:26:50;;;;;;;0.20;0.20;;;14.70;99.90;;;;;;5132117;27;20069;-78
2022/10/16 09:29:19;;;;;;;0.10;0.10;;;14.90;99.90;;;;;;5140773;27;20045;-76
2022/10/16 09:31:45;;;;;;;0.10;0.10;;;15.20;99.90;;;;;;5123403;28;20082;-78
2022/10/16 09:34:18;;;;;;;0.20;0.20;;;15.40;99.90;;;;;;5115458;27;20069;-80
2022/10/16 09:36:46;;;;;;;0.20;0.20;;;15.80;99.90;;;;;;5131223;27;20436;-79
2022/10/16 09:39:11;;;;;;;0.10;0.10;;;16.40;99.90;;;;;;5148109;27;20042;-79
2022/10/16 09:41:41;;;;;;;0.17;0.17;;;17.00;99.90;;;;;;5147679;27;20036;-80
2022/10/16 09:44:18;;;;;;;0.10;0.10;;;17.50;99.90;;;;;;5133887;27;20043;-80
2022/10/16 09:46:43;;;;;;;1.02;0.50;;;17.80;99.90;;;;;;5146241;27;20035;-80
2022/10/16 09:49:26;;;;;;;0.10;0.10;;;17.80;99.90;;;;;;5141095;27;20052;-79
2022/10/16 09:52:11;;;;;;;0.63;0.63;;;17.80;99.90;;;;;;5150065;27;20047;-78
2022/10/16 09:54:37;;;;;;;0.15;0.15;;;17.80;99.90;;;;;;5149144;27;20083;-76
2022/10/16 09:57:13;;;;;;;2.35;1.20;;;17.70;99.90;;;;;;5153724;27;20030;-75
2022/10/16 09:59:50;;;;;;;0.10;0.10;;;17.40;99.90;;;;;;5145637;27;20038;-75
2022/10/16 10:02:19;;;;;;;3.40;2.50;;;17.10;99.90;;;;;;5144812;27;20082;-74
2022/10/16 10:04:53;;;;;;;0.20;0.20;;;16.80;99.90;;;;;;5153582;27;20047;-74
2022/10/16 10:07:34;;;;;;;0.90;0.85;;;16.60;99.90;;;;;;5128076;27;20068;-74
2022/10/16 10:10:01;;;;;;;0.10;0.10;;;16.50;99.90;;;;;;5140578;27;20047;-72
2022/10/16 10:12:36;;;;;;;0.10;0.10;;;16.20;99.90;;;;;;5147785;27;20477;-71
2022/10/16 10:15:12;;;;;;;0.20;0.20;;;16.00;99.90;;;;;;5142763;27;20088;-70
2022/10/16 10:17:52;;;;;;;0.10;0.10;;;15.80;99.90;;;;;;5140824;27;20071;-72
2022/10/16 10:20:31;;;;;;;0.00;0.00;;;15.80;99.90;;;;;;5125543;27;20486;-72
2022/10/16 10:22:56;;;;;;;0.30;0.30;;;15.70;99.90;;;;;;5143877;27;20043;-71
2022/10/16 10:25:46;;;;;;;0.75;0.75;;;15.60;99.90;;;;;;5139594;27;20035;-73
2022/10/16 10:28:23;;;;;;;0.10;0.10;;;15.50;99.90;;;;;;5126723;27;20043;-73
2022/10/16 10:30:58;;;;;;;0.73;0.73;;;15.60;99.90;;;;;;5142969;27;20483;-73
2022/10/16 10:33:46;;;;;;;0.15;0.15;;;15.60;99.90;;;;;;5141658;27;20126;-73
2022/10/16 10:36:38;;;;;;;0.10;0.10;;;15.70;99.90;;;;;;5148957;27;20035;-73
2022/10/16 10:39:20;;;;;;;0.20;0.20;;;15.80;99.90;;;;;;5146082;27;20043;-74
2022/10/16 10:42:16;;;;;;;0.63;0.63;;;15.90;99.90;;;;;;5152373;27;20482;-73
2022/10/16 10:45:13;;;;;;;1.55;1.35;;;15.90;99.90;;;;;;5139025;27;20051;-73
2022/10/16 10:47:57;;;;;;;3.83;1.05;;;16.00;99.90;;;;;;5143211;27;20031;-75
2022/10/16 10:50:25;;;;;;;;;;;16.10;99.90;;;;;;5137480;27;20043;-75
2022/10/16 10:53:02;;;;;;;0.10;0.10;;;16.10;99.90;;;;;;5153167;27;19919;-75
2022/10/16 10:55:48;;;;;;;0.80;0.57;;;16.10;99.90;;;;;;5153034;27;20041;-74
2022/10/16 10:58:42;;;;;;;0.10;0.10;;;16.10;99.90;;;;;;5137000;27;20047;-74
2022/10/16 11:01:13;;;;;;;;;;;16.20;99.90;;;;;;5143098;27;20079;-74
2022/10/16 11:03:55;;;;;;;2.63;1.70;;;16.30;99.90;;;;;;5150379;27;19919;-73
2022/10/16 11:06:34;;;;;;;0.10;0.10;;;16.40;99.90;;;;;;5136398;27;20055;-73
2022/10/16 11:09:12;;;;;;;0.00;0.00;;;16.50;99.90;;;;;;5144183;27;20038;-74
2022/10/16 11:11:40;;;;;;;0.30;0.30;;;16.60;99.90;;;;;;5139412;27;20051;-73
2022/10/16 11:14:20;;;;;;;0.10;0.10;;;16.90;99.90;;;;;;5125291;27;20054;-73
2022/10/16 11:17:02;;;;;;;0.20;0.20;;;17.10;99.90;;;;;;5132545;27;20054;-75
2022/10/16 11:19:35;;;;;;;0.10;0.10;;;17.30;99.90;;;;;;5139089;27;20035;-75
2022/10/16 11:22:22;;;;;;;0.10;0.10;;;17.60;99.90;;;;;;5127378;27;20402;-74
2022/10/16 11:25:04;;;;;;;0.00;0.00;;;17.80;99.90;;;;;;5142863;27;20514;-74
2022/10/16 11:28:00;;;;;;;0.10;0.10;;;18.00;99.90;;;;;;5144336;27;20079;-74
2022/10/16 11:30:33;;;;;;;17.88;1.25;;;18.20;99.90;;;;;;5123260;27;20055;-75
2022/10/16 11:33:08;;;;;;;0.30;0.30;;;18.40;99.90;;;;;;5135680;27;20047;-75
2022/10/16 11:35:44;;;;;;;0.50;0.50;;;18.70;99.90;;;;;;5139810;27;20046;-76
2022/10/16 11:38:22;;;;;;;0.70;0.70;;;18.80;99.90;;;;;;5126167;27;20050;-75
2022/10/16 11:40:52;;;;;;;0.00;0.00;;;19.10;99.90;;;;;;5136704;27;20382;-74
2022/10/16 11:43:25;;;;;;;0.10;0.10;;;19.40;99.90;;;;;;5142125;27;20379;-75
2022/10/16 11:46:01;;;;;;;0.10;0.10;;;19.40;99.90;;;;;;5147603;27;20043;-75
2022/10/16 11:48:51;;;;;;;0.30;0.30;;;19.40;99.90;;;;;;5137163;27;20038;-76
2022/10/16 11:51:30;;;;;;;1.30;1.20;;;19.60;99.90;;;;;;5134568;27;20402;-75
2022/10/16 11:54:24;;;;;;;0.00;0.00;;;19.80;99.90;;;;;;5135344;27;20371;-74
2022/10/16 11:56:54;;;;;;;0.10;0.10;;;19.30;99.90;;;;;;5131954;27;20394;-75
2022/10/16 11:59:29;;;;;;;0.70;0.63;;;19.40;99.90;;;;;;5142567;27;20046;-75
2022/10/16 12:02:22;;;;;;;0.10;0.10;;;19.40;99.90;;;;;;5147544;27;20490;-75
2022/10/16 12:04:59;;;;;;;0.00;0.00;;;19.60;99.90;;;;;;5125100;27;20435;-75
2022/10/16 12:07:32;;;;;;;0.17;0.17;;;19.90;99.90;;;;;;5141597;27;20031;-74
2022/10/16 12:10:00;;;;;;;6.25;1.35;;;20.00;99.90;;;;;;5143489;27;20081;-76
2022/10/16 12:12:35;;;;;;;0.52;0.40;;;20.10;99.90;;;;;;5149165;27;20415;-75
2022/10/16 12:15:05;;;;;;;0.10;0.10;;;20.30;99.90;;;;;;5130832;27;20047;-75
2022/10/16 12:17:38;;;;;;;0.52;0.40;;;20.30;99.90;;;;;;5132984;27;20092;-75
2022/10/16 12:20:21;;;;;;;0.10;0.10;;;20.50;99.90;;;;;;5141777;27;20482;-76
2022/10/16 12:22:49;;;;;;;;;;;20.50;99.90;;;;;;5142140;27;20058;-76
2022/10/16 12:25:28;;;;;;;6.03;0.57;;;20.80;99.90;;;;;;5140971;27;19929;-76
2022/10/16 12:28:17;;;;;;;0.05;0.05;;;21.10;99.90;;;;;;5143149;27;20125;-76
2022/10/16 12:30:52;;;;;;;0.15;0.15;;;21.10;99.90;;;;;;5138392;27;20069;-76
2022/10/16 12:33:24;;;;;;;8.40;0.70;;;21.10;99.90;;;;;;5147116;27;20039;-76
2022/10/16 12:35:51;;;;;;;0.17;0.17;;;21.20;99.90;;;;;;5141752;27;20050;-76
2022/10/16 12:38:25;;;;;;;1.05;0.68;;;20.90;99.90;;;;;;5140105;27;20042;-76
2022/10/16 12:40:59;;;;;;;0.00;0.00;;;21.10;99.90;;;;;;5144080;27;20544;-78
2022/10/16 12:43:32;;;;;;;0.10;0.10;;;21.20;99.90;;;;;;5131175;27;20047;-76
2022/10/16 12:46:21;;;;;;;0.10;0.10;;;21.30;99.90;;;;;;5123557;27;20179;-76
2022/10/16 12:48:48;;;;;;;0.00;0.00;;;21.20;99.90;;;;;;5139850;27;20071;-76
2022/10/16 12:51:28;;;;;;;0.00;0.00;;;20.70;99.90;;;;;;5126561;28;20035;-75
2022/10/16 12:54:18;;;;;;;2.75;0.70;;;20.60;99.90;;;;;;5140514;27;20498;-76
2022/10/16 12:57:07;;;;;;;0.47;0.40;;;20.50;99.90;;;;;;5140710;27;20076;-76
2022/10/16 12:59:57;;;;;;;2.80;0.63;;;20.40;99.90;;;;;;5119916;27;20047;-76
2022/10/16 13:02:59;;;;;;;1.52;0.80;;;20.30;99.90;;;;;;5141776;27;20057;-76
2022/10/16 13:05:54;;;;;;;0.65;0.65;;;20.40;99.90;;;;;;5144802;27;20047;-76
2022/10/16 13:08:34;;;;;;;0.00;0.00;;;20.20;99.90;;;;;;5134223;27;20133;-76